»·PEaware :: PRD69 KBCE-KLAS

PRD69 :: KBCE-KLAS

FLIGHT INFORMATION

Flight Status: Arrived
Operator: Unknown
More flights by this operator :: More flights under this callsign
Pilot: Ryan B. (8502)
Aircraft: BEECH AIRCRAFT SUPER KING AIR COMMUTER
(BE20)
More flights by this aircraft type
Origin: KBCE Bryce Canyon
United States
Destination: KLAS McCarran Intl
United States
More flights between these airports :: More routes between these airports
Route: +BRYCE2 BCE MMM
File this flight plan on PilotEdge
Remarks: Sample flight plan
Altitude:
(Current/Filed)
18,000ft
Speed:
(Current/Filed)
250kts
Departed: 06-Oct-18 03:16 PM
Arrived: 06-Oct-18 04:05 PM
Distance/Time
Traveled:
175nm/0:48
Distance/Time
To Go:
Arrived

Flight Plot

Page will automatically refresh every two minutes.

Flight plan parsing failed; only flown route is shown


Map Options




Map Legend


Flown Route
Filed Route
Departure Airport
Arrival Airport
Navaid (VOR, NDB)
Fix

Horizontal Profiles

Position Reports

Time Latitude Longitude Heading Altitude Ground
Speed
06-Oct-18 15:06 37.701900 -112.153941 310 7591ft 0kts
06-Oct-18 15:07 37.701900 -112.153941 310 7591ft 0kts
06-Oct-18 15:08 37.701900 -112.153941 310 7591ft 0kts
06-Oct-18 15:09 37.701900 -112.153941 310 7591ft 0kts
06-Oct-18 15:10 37.701900 -112.153941 310 7591ft 0kts
06-Oct-18 15:11 37.701900 -112.153941 310 7591ft 0kts
06-Oct-18 15:12 37.701900 -112.153941 310 7591ft 0kts
06-Oct-18 15:13 37.702546 -112.153402 47 7592ft 4kts
06-Oct-18 15:14 37.702984 -112.151966 46 7592ft 19kts
06-Oct-18 15:15 37.709178 -112.143672 46 7592ft 31kts
06-Oct-18 15:16 37.713887 -112.137141 130 7592ft 12kts
06-Oct-18 15:17 37.713262 -112.136670 227 7592ft 0kts
06-Oct-18 15:18 37.701717 -112.152615 227 7796ft 134kts
06-Oct-18 15:19 37.678754 -112.191642 265 9198ft 147kts
06-Oct-18 15:20 37.681073 -112.244326 278 10361ft 178kts
06-Oct-18 15:21 37.690227 -112.310107 272 12184ft 194kts
06-Oct-18 15:22 37.669049 -112.367861 240 13867ft 196kts
06-Oct-18 15:23 37.645498 -112.424264 241 15253ft 184kts
06-Oct-18 15:24 37.623339 -112.483128 236 15153ft 192kts
06-Oct-18 15:25 37.595710 -112.539290 239 15575ft 185kts
06-Oct-18 15:26 37.569491 -112.595498 239 16089ft 191kts
06-Oct-18 15:27 37.541093 -112.656651 238 16089ft 213kts
06-Oct-18 15:28 37.510754 -112.722036 239 16077ft 224kts
06-Oct-18 15:29 37.480944 -112.786252 238 16853ft 204kts
06-Oct-18 15:30 37.453505 -112.845363 239 17623ft 193kts
06-Oct-18 15:31 37.426932 -112.903481 239 18230ft 193kts
06-Oct-18 15:32 37.399885 -112.961558 239 18795ft 193kts
06-Oct-18 15:33 37.375683 -113.013281 240 19266ft 194kts
06-Oct-18 15:34 37.348543 -113.071124 240 19790ft 196kts
06-Oct-18 15:35 37.319879 -113.132161 240 19859ft 217kts
06-Oct-18 15:36 37.288965 -113.197831 239 19833ft 227kts
06-Oct-18 15:37 37.256652 -113.266316 240 19830ft 232kts
06-Oct-18 15:38 37.225250 -113.332736 239 19829ft 236kts
06-Oct-18 15:39 37.194063 -113.398571 239 19829ft 239kts
06-Oct-18 15:40 37.160036 -113.470249 239 19828ft 242kts
06-Oct-18 15:41 37.125629 -113.542572 239 19828ft 244kts
06-Oct-18 15:42 37.090524 -113.616109 240 19827ft 247kts
06-Oct-18 15:43 37.055331 -113.689710 240 19833ft 251kts
06-Oct-18 15:44 37.025197 -113.752644 240 19832ft 254kts
06-Oct-18 15:45 36.982523 -113.841557 241 19832ft 258kts
06-Oct-18 15:46 36.951439 -113.906187 241 19833ft 262kts
06-Oct-18 15:47 36.907213 -113.997969 241 19832ft 265kts
06-Oct-18 15:48 36.876961 -114.060557 241 19831ft 267kts
06-Oct-18 15:49 36.838483 -114.139983 241 19830ft 268kts
06-Oct-18 15:50 36.799769 -114.219708 241 19829ft 269kts
06-Oct-18 15:51 36.757177 -114.296895 229 19449ft 283kts
06-Oct-18 15:52 36.702050 -114.367680 229 18098ft 297kts
06-Oct-18 15:53 36.645038 -114.440810 228 16684ft 292kts
06-Oct-18 15:54 36.588637 -114.513073 228 15274ft 291kts
06-Oct-18 15:55 36.532310 -114.585084 228 13867ft 291kts
06-Oct-18 15:56 36.475946 -114.656980 227 12466ft 292kts
06-Oct-18 15:57 36.418891 -114.729049 225 11075ft 292kts
06-Oct-18 15:58 36.362592 -114.799391 226 10003ft 285kts
06-Oct-18 15:59 36.298449 -114.853516 216 9035ft 271kts
06-Oct-18 16:00 36.244413 -114.897291 215 8339ft 265kts
06-Oct-18 16:01 36.183256 -114.946662 215 7994ft 260kts
06-Oct-18 16:02 36.126421 -114.992727 216 7995ft 259kts
06-Oct-18 16:03 36.070075 -115.038375 216 8004ft 262kts
06-Oct-18 16:04 36.038986 -115.111676 265 6664ft 233kts
06-Oct-18 16:05 36.034642 -115.180725 295 4384ft 158kts
06-Oct-18 16:06 36.063503 -115.177182 24 2622ft 101kts
06-Oct-18 16:07 36.082254 -115.167050 300 2156ft 12kts
06-Oct-18 16:08 36.080793 -115.170445 179 2168ft 11kts
06-Oct-18 16:09 36.080481 -115.170677 267 2169ft 0kts
06-Oct-18 16:10 36.080481 -115.170677 267 2169ft 0kts
06-Oct-18 16:11 36.080481 -115.170677 267 2169ft 0kts
06-Oct-18 16:12 36.080481 -115.170677 267 2169ft 0kts
06-Oct-18 16:13 36.080481 -115.170677 267 2169ft 0kts
06-Oct-18 16:14 36.080481 -115.170677 267 2169ft 0kts
06-Oct-18 16:15 36.080481 -115.170677 267 2169ft 0kts
06-Oct-18 16:16 36.080481 -115.170677 267 2169ft 0kts
06-Oct-18 16:17 36.080481 -115.170677 267 2169ft 0kts
06-Oct-18 16:18 36.080481 -115.170677 267 2169ft 0kts
06-Oct-18 16:19 36.080481 -115.170677 267 2169ft 0kts
06-Oct-18 16:20 36.080481 -115.170677 267 2169ft 0kts
06-Oct-18 16:21 36.080481 -115.170677 267 2169ft 0kts

Navigation Log

Ident Type
Flight plan parsing failed, navigation log unavailable